sensor_id;sensor_type;location;lat;lon;timestamp;pressure;altitude;pressure_sealevel;temperature;humidity
46638;BME280;32365;46.938;7.390;2023-01-13T17:02:47;95688.31;;;6.23;82.13
46638;BME280;32365;46.938;7.390;2023-01-13T17:05:14;95700.97;;;6.25;81.57
46638;BME280;32365;46.938;7.390;2023-01-13T17:07:40;95703.13;;;6.21;82.76
46638;BME280;32365;46.938;7.390;2023-01-13T17:10:07;95708.47;;;6.13;82.41
46638;BME280;32365;46.938;7.390;2023-01-13T17:12:33;95714.38;;;6.13;81.62
46638;BME280;32365;46.938;7.390;2023-01-13T17:15:00;95719.72;;;6.12;81.81
46638;BME280;32365;46.938;7.390;2023-01-13T17:17:26;95729.81;;;6.13;82.10
46638;BME280;32365;46.938;7.390;2023-01-13T17:19:54;95726.00;;;6.09;81.51
46638;BME280;32365;46.938;7.390;2023-01-13T17:22:20;95736.13;;;6.11;81.52
46638;BME280;32365;46.938;7.390;2023-01-13T17:24:47;95745.44;;;6.12;81.90
46638;BME280;32365;46.938;7.390;2023-01-13T17:27:13;95751.50;;;6.04;82.36
46638;BME280;32365;46.938;7.390;2023-01-13T17:29:41;95753.88;;;6.06;81.71
46638;BME280;32365;46.938;7.390;2023-01-13T17:32:08;95761.88;;;5.96;81.60
46638;BME280;32365;46.938;7.390;2023-01-13T17:34:34;95764.47;;;5.96;81.12
46638;BME280;32365;46.938;7.390;2023-01-13T17:37:02;95772.97;;;5.96;81.17
46638;BME280;32365;46.938;7.390;2023-01-13T17:39:28;95778.56;;;6.00;80.39
46638;BME280;32365;46.938;7.390;2023-01-13T17:41:55;95780.66;;;5.90;80.40
46638;BME280;32365;46.938;7.390;2023-01-13T17:44:21;95779.38;;;5.79;80.39
46638;BME280;32365;46.938;7.390;2023-01-13T17:46:48;95787.84;;;5.73;81.05
46638;BME280;32365;46.938;7.390;2023-01-13T17:49:15;95773.22;;;5.73;79.93
46638;BME280;32365;46.938;7.390;2023-01-13T17:51:42;95783.88;;;5.70;79.65
46638;BME280;32365;46.938;7.390;2023-01-13T17:54:10;95775.56;;;5.68;79.50
46638;BME280;32365;46.938;7.390;2023-01-13T17:56:36;95782.28;;;5.69;78.84
46638;BME280;32365;46.938;7.390;2023-01-13T17:59:02;95781.69;;;5.67;77.36
46638;BME280;32365;46.938;7.390;2023-01-13T18:01:29;95788.03;;;5.71;77.22
46638;BME280;32365;46.938;7.390;2023-01-13T18:03:57;95785.06;;;5.74;76.85
46638;BME280;32365;46.938;7.390;2023-01-13T18:06:23;95791.13;;;5.66;77.21
46638;BME280;32365;46.938;7.390;2023-01-13T18:08:50;95787.19;;;5.64;76.81
46638;BME280;32365;46.938;7.390;2023-01-13T18:11:18;95790.72;;;5.63;76.92
46638;BME280;32365;46.938;7.390;2023-01-13T18:13:45;95790.22;;;5.74;77.11
46638;BME280;32365;46.938;7.390;2023-01-13T18:16:12;95808.63;;;5.78;77.57
46638;BME280;32365;46.938;7.390;2023-01-13T18:18:39;95808.81;;;5.76;77.45
46638;BME280;32365;46.938;7.390;2023-01-13T18:21:06;95809.47;;;5.85;78.38
46638;BME280;32365;46.938;7.390;2023-01-13T18:23:50;95809.63;;;5.77;79.13
46638;BME280;32365;46.938;7.390;2023-01-13T18:26:35;95804.34;;;5.85;79.50
46638;BME280;32365;46.938;7.390;2023-01-13T18:29:18;95810.09;;;5.87;79.96
46638;BME280;32365;46.938;7.390;2023-01-13T18:31:45;95808.13;;;5.89;79.84
46638;BME280;32365;46.938;7.390;2023-01-13T18:34:11;95810.25;;;5.85;80.18
46638;BME280;32365;46.938;7.390;2023-01-13T18:36:38;95818.25;;;5.97;79.57
46638;BME280;32365;46.938;7.390;2023-01-13T18:39:04;95824.75;;;5.93;81.05
46638;BME280;32365;46.938;7.390;2023-01-13T18:41:30;95826.47;;;5.86;81.72
46638;BME280;32365;46.938;7.390;2023-01-13T18:44:16;95827.50;;;5.92;81.61
46638;BME280;32365;46.938;7.390;2023-01-13T18:46:42;95824.88;;;5.85;81.88
46638;BME280;32365;46.938;7.390;2023-01-13T18:49:09;95832.03;;;5.90;82.81
46638;BME280;32365;46.938;7.390;2023-01-13T18:51:35;95848.00;;;5.85;83.42
46638;BME280;32365;46.938;7.390;2023-01-13T18:54:02;95844.53;;;5.93;82.84
46638;BME280;32365;46.938;7.390;2023-01-13T18:56:29;95853.63;;;5.95;83.32
46638;BME280;32365;46.938;7.390;2023-01-13T18:58:56;95858.00;;;5.73;84.74
46638;BME280;32365;46.938;7.390;2023-01-13T19:01:24;95861.00;;;5.77;85.37
46638;BME280;32365;46.938;7.390;2023-01-13T19:03:54;95866.16;;;5.77;85.54
46638;BME280;32365;46.938;7.390;2023-01-13T19:06:21;95869.38;;;5.64;83.15
46638;BME280;32365;46.938;7.390;2023-01-13T19:08:48;95873.47;;;5.58;81.91
46638;BME280;32365;46.938;7.390;2023-01-13T19:11:17;95876.03;;;5.58;82.37
46638;BME280;32365;46.938;7.390;2023-01-13T19:13:44;95885.22;;;5.67;79.56
46638;BME280;32365;46.938;7.390;2023-01-13T19:16:10;95890.28;;;5.61;79.62
46638;BME280;32365;46.938;7.390;2023-01-13T19:18:38;95898.31;;;5.51;81.84
46638;BME280;32365;46.938;7.390;2023-01-13T19:21:05;95904.91;;;5.23;85.36
46638;BME280;32365;46.938;7.390;2023-01-13T19:23:32;95909.03;;;5.03;88.42
46638;BME280;32365;46.938;7.390;2023-01-13T19:25:58;95901.34;;;4.88;89.96
46638;BME280;32365;46.938;7.390;2023-01-13T19:28:25;95898.25;;;4.77;90.60
46638;BME280;32365;46.938;7.390;2023-01-13T19:30:51;95905.59;;;4.66;89.75
46638;BME280;32365;46.938;7.390;2023-01-13T19:33:18;95903.56;;;4.61;89.75
46638;BME280;32365;46.938;7.390;2023-01-13T19:35:45;95905.41;;;4.52;89.87
46638;BME280;32365;46.938;7.390;2023-01-13T19:38:14;95909.84;;;4.58;90.28
46638;BME280;32365;46.938;7.390;2023-01-13T19:40:40;95915.16;;;4.57;89.66
46638;BME280;32365;46.938;7.390;2023-01-13T19:43:07;95913.72;;;4.54;89.85
46638;BME280;32365;46.938;7.390;2023-01-13T19:45:51;95917.72;;;4.57;90.96
46638;BME280;32365;46.938;7.390;2023-01-13T19:48:18;95913.81;;;4.61;90.51
46638;BME280;32365;46.938;7.390;2023-01-13T19:50:46;95928.22;;;4.47;90.18
46638;BME280;32365;46.938;7.390;2023-01-13T19:53:13;95924.59;;;4.56;90.17
46638;BME280;32365;46.938;7.390;2023-01-13T19:55:42;95922.16;;;4.63;89.71
46638;BME280;32365;46.938;7.390;2023-01-13T19:58:08;95926.50;;;4.62;89.69
46638;BME280;32365;46.938;7.390;2023-01-13T20:00:34;95929.50;;;4.66;88.72
46638;BME280;32365;46.938;7.390;2023-01-13T20:03:01;95933.91;;;4.57;88.82
46638;BME280;32365;46.938;7.390;2023-01-13T20:05:31;95929.84;;;4.63;87.06
46638;BME280;32365;46.938;7.390;2023-01-13T20:08:02;95948.22;;;4.67;87.61
46638;BME280;32365;46.938;7.390;2023-01-13T20:10:29;95940.97;;;4.70;87.75
46638;BME280;32365;46.938;7.390;2023-01-13T20:12:55;95933.03;;;4.80;86.52
46638;BME280;32365;46.938;7.390;2023-01-13T20:15:21;95933.66;;;4.82;86.90
46638;BME280;32365;46.938;7.390;2023-01-13T20:17:48;95943.03;;;4.90;85.99
46638;BME280;32365;46.938;7.390;2023-01-13T20:20:15;95935.88;;;4.85;86.22
46638;BME280;32365;46.938;7.390;2023-01-13T20:22:42;95920.19;;;4.95;85.58
46638;BME280;32365;46.938;7.390;2023-01-13T20:25:11;95916.22;;;4.92;84.98
46638;BME280;32365;46.938;7.390;2023-01-13T20:27:40;95924.97;;;4.98;84.94
46638;BME280;32365;46.938;7.390;2023-01-13T20:30:07;95922.84;;;4.87;85.05
46638;BME280;32365;46.938;7.390;2023-01-13T20:32:37;95919.41;;;4.80;84.45
46638;BME280;32365;46.938;7.390;2023-01-13T20:35:04;95910.44;;;4.90;84.16
46638;BME280;32365;46.938;7.390;2023-01-13T20:37:31;95908.50;;;4.92;82.93
46638;BME280;32365;46.938;7.390;2023-01-13T20:39:57;95913.09;;;4.97;81.58
46638;BME280;32365;46.938;7.390;2023-01-13T20:42:27;95911.69;;;4.95;81.52
46638;BME280;32365;46.938;7.390;2023-01-13T20:44:56;95910.19;;;5.00;80.22
46638;BME280;32365;46.938;7.390;2023-01-13T20:47:23;95907.00;;;4.98;79.84
46638;BME280;32365;46.938;7.390;2023-01-13T20:49:50;95918.13;;;5.05;79.39
46638;BME280;32365;46.938;7.390;2023-01-13T20:52:19;95922.38;;;5.13;79.37
46638;BME280;32365;46.938;7.390;2023-01-13T20:54:45;95927.34;;;5.15;78.54
46638;BME280;32365;46.938;7.390;2023-01-13T20:57:11;95928.41;;;5.20;78.37
46638;BME280;32365;46.938;7.390;2023-01-13T20:59:39;95923.41;;;5.19;78.48
46638;BME280;32365;46.938;7.390;2023-01-13T21:02:06;95924.41;;;5.18;78.11
46638;BME280;32365;46.938;7.390;2023-01-13T21:04:35;95932.56;;;5.21;78.11
46638;BME280;32365;46.938;7.390;2023-01-13T21:07:02;95928.56;;;5.34;76.09
46638;BME280;32365;46.938;7.390;2023-01-13T21:09:28;95934.91;;;5.38;75.59
46638;BME280;32365;46.938;7.390;2023-01-13T21:11:54;95930.72;;;5.37;74.50
46638;BME280;32365;46.938;7.390;2023-01-13T21:14:39;95938.91;;;5.41;75.18
46638;BME280;32365;46.938;7.390;2023-01-13T21:17:23;95933.38;;;5.44;74.73
46638;BME280;32365;46.938;7.390;2023-01-13T21:20:09;95925.16;;;5.33;74.71
46638;BME280;32365;46.938;7.390;2023-01-13T21:22:36;95937.91;;;5.42;74.25
